createdAt,value
2023-05-15T00:02:00.390Z,12.95
2023-05-15T00:04:28.454Z,12.91
2023-05-15T00:06:56.773Z,12.89
2023-05-15T00:09:25.061Z,12.86
2023-05-15T00:11:53.309Z,12.80
2023-05-15T00:14:21.610Z,12.76
2023-05-15T00:16:49.718Z,12.74
2023-05-15T00:19:17.916Z,12.71
2023-05-15T00:21:46.520Z,12.70
2023-05-15T00:24:14.780Z,12.68
2023-05-15T00:26:43.467Z,12.67
2023-05-15T00:29:11.876Z,12.66
2023-05-15T00:31:40.405Z,12.65
2023-05-15T00:34:08.842Z,12.65
2023-05-15T00:36:38.977Z,12.66
2023-05-15T00:39:07.095Z,12.67
2023-05-15T00:41:36.942Z,12.68
2023-05-15T00:44:07.420Z,12.69
2023-05-15T00:46:36.767Z,12.70
2023-05-15T00:49:07.219Z,12.72
2023-05-15T00:51:36.350Z,12.74
2023-05-15T00:54:05.923Z,12.75
2023-05-15T00:56:34.260Z,12.77
2023-05-15T00:59:03.915Z,12.79
2023-05-15T01:01:34.878Z,12.80
2023-05-15T01:04:04.842Z,12.80
2023-05-15T01:06:33.372Z,12.80
2023-05-15T01:09:04.207Z,12.79
2023-05-15T01:11:36.588Z,12.78
2023-05-15T01:14:07.488Z,12.76
2023-05-15T01:16:36.498Z,12.73
2023-05-15T01:19:05.713Z,12.70
2023-05-15T01:21:36.991Z,12.67
2023-05-15T01:24:34.272Z,12.63
2023-05-15T01:27:24.751Z,12.61
2023-05-15T01:30:05.148Z,12.60
2023-05-15T01:32:51.226Z,12.60
2023-05-15T01:35:43.891Z,12.60
2023-05-15T01:38:36.104Z,12.62
2023-05-15T01:41:28.400Z,12.63
2023-05-15T01:44:23.574Z,12.63
2023-05-15T01:46:55.738Z,12.63
2023-05-15T01:49:27.736Z,12.63
2023-05-15T01:52:02.454Z,12.63
2023-05-15T01:54:32.228Z,12.62
2023-05-15T01:57:00.598Z,12.61
2023-05-15T01:59:30.689Z,12.59
2023-05-15T02:02:00.178Z,12.54
2023-05-15T02:04:28.712Z,12.49
2023-05-15T02:06:57.501Z,12.47
2023-05-15T02:09:26.669Z,12.44
2023-05-15T02:11:55.860Z,12.41
2023-05-15T02:14:25.180Z,12.38
2023-05-15T02:16:53.364Z,12.35
2023-05-15T02:19:22.063Z,12.33
2023-05-15T02:21:50.238Z,12.32
2023-05-15T02:24:18.375Z,12.32
2023-05-15T02:26:52.596Z,12.32
2023-05-15T02:29:42.669Z,12.32
2023-05-15T02:32:38.549Z,12.32
2023-05-15T02:35:06.717Z,12.32
2023-05-15T02:37:39.056Z,12.34
2023-05-15T02:40:12.172Z,12.34
2023-05-15T02:42:41.832Z,12.33
2023-05-15T02:45:11.049Z,12.31
2023-05-15T02:47:40.978Z,12.29
2023-05-15T02:50:10.415Z,12.26
2023-05-15T02:52:38.830Z,12.25
2023-05-15T02:55:07.807Z,12.26
2023-05-15T02:57:36.087Z,12.26
2023-05-15T03:00:07.538Z,12.27
2023-05-15T03:02:36.279Z,12.28
2023-05-15T03:05:04.989Z,12.30
2023-05-15T03:07:33.125Z,12.32
2023-05-15T03:10:01.360Z,12.34
2023-05-15T03:12:29.458Z,12.35
2023-05-15T03:14:57.728Z,12.35
2023-05-15T03:17:26.008Z,12.34
2023-05-15T03:19:54.177Z,12.33
2023-05-15T03:22:22.419Z,12.32
2023-05-15T03:24:50.958Z,12.32
2023-05-15T03:27:19.108Z,12.33
2023-05-15T03:29:49.165Z,12.34
2023-05-15T03:32:17.824Z,12.35
2023-05-15T03:34:45.975Z,12.36
2023-05-15T03:37:14.215Z,12.40
2023-05-15T03:39:42.414Z,12.46
2023-05-15T03:42:10.692Z,12.53
2023-05-15T03:44:39.053Z,12.58
2023-05-15T03:47:07.417Z,12.62
2023-05-15T03:49:35.509Z,12.64
2023-05-15T03:52:06.390Z,12.65
2023-05-15T03:54:35.945Z,12.66
2023-05-15T03:57:07.860Z,12.67
2023-05-15T03:59:36.117Z,12.68
2023-05-15T04:02:05.679Z,12.70
2023-05-15T04:04:34.133Z,12.72
2023-05-15T04:07:02.581Z,12.74
2023-05-15T04:09:30.812Z,12.76
2023-05-15T04:11:58.982Z,12.77
2023-05-15T04:14:27.129Z,12.76
2023-05-15T04:16:55.604Z,12.74
2023-05-15T04:19:23.713Z,12.72
2023-05-15T04:21:51.829Z,12.72
2023-05-15T04:24:19.965Z,12.72
2023-05-15T04:26:48.207Z,12.74
2023-05-15T04:29:16.455Z,12.77
2023-05-15T04:31:44.580Z,12.78
2023-05-15T04:34:12.832Z,12.79
2023-05-15T04:36:42.967Z,12.79
2023-05-15T04:39:11.603Z,12.78
2023-05-15T04:41:39.722Z,12.77
2023-05-15T04:44:08.982Z,12.77
2023-05-15T04:46:37.826Z,12.78
2023-05-15T04:49:06.849Z,12.81
2023-05-15T04:51:35.277Z,12.85
2023-05-15T04:54:03.662Z,12.90
2023-05-15T04:56:32.081Z,12.97
2023-05-15T04:59:01.081Z,13.02
2023-05-15T05:01:29.598Z,13.09
2023-05-15T05:03:57.770Z,13.16
2023-05-15T05:06:25.862Z,13.21
2023-05-15T05:08:53.982Z,13.28
2023-05-15T05:11:22.174Z,13.36
2023-05-15T05:13:51.105Z,13.44
2023-05-15T05:16:19.239Z,13.52
2023-05-15T05:18:47.431Z,13.57
2023-05-15T05:21:15.774Z,13.63
2023-05-15T05:23:44.078Z,13.68
2023-05-15T05:26:12.176Z,13.74
2023-05-15T05:28:40.580Z,13.78
2023-05-15T05:31:08.794Z,13.82
2023-05-15T05:33:36.891Z,13.87
2023-05-15T05:36:05.638Z,13.93
2023-05-15T05:38:34.692Z,13.98
2023-05-15T05:41:03.749Z,14.03
2023-05-15T05:43:31.843Z,14.12
2023-05-15T05:45:59.901Z,14.21
2023-05-15T05:48:28.075Z,14.30
2023-05-15T05:50:56.229Z,14.40
2023-05-15T05:53:24.412Z,14.48
2023-05-15T05:55:52.827Z,14.60
2023-05-15T05:58:25.712Z,14.75
2023-05-15T06:00:54.866Z,14.91
2023-05-15T06:03:24.308Z,15.03
2023-05-15T06:05:53.872Z,15.10
2023-05-15T06:08:22.045Z,15.18
2023-05-15T06:10:50.245Z,15.25
2023-05-15T06:13:19.118Z,15.30
2023-05-15T06:15:47.545Z,15.36
2023-05-15T06:18:15.774Z,15.41
2023-05-15T06:20:44.096Z,15.47
2023-05-15T06:23:12.377Z,15.53
2023-05-15T06:25:40.762Z,15.61
2023-05-15T06:28:08.821Z,15.70
2023-05-15T06:30:37.141Z,15.78
2023-05-15T06:33:05.815Z,15.85
2023-05-15T06:35:34.489Z,15.93
2023-05-15T06:38:02.619Z,16.03
2023-05-15T06:40:30.955Z,16.16
2023-05-15T06:42:59.165Z,16.29
2023-05-15T06:45:27.853Z,16.41
2023-05-15T06:47:57.406Z,16.50
2023-05-15T06:50:26.739Z,16.57
2023-05-15T06:52:55.049Z,16.67
2023-05-15T06:55:23.680Z,16.77
2023-05-15T06:57:52.220Z,16.85
2023-05-15T07:00:22.396Z,16.90
2023-05-15T07:02:58.430Z,16.92
2023-05-15T07:05:27.396Z,16.96
2023-05-15T07:08:06.348Z,17.10
2023-05-15T07:10:50.366Z,17.37
2023-05-15T07:13:25.305Z,17.72
2023-05-15T07:15:58.856Z,18.03
2023-05-15T07:18:27.347Z,18.29
2023-05-15T07:20:59.266Z,18.49
2023-05-15T07:23:33.161Z,18.61
2023-05-15T07:26:16.805Z,18.65
2023-05-15T07:28:51.833Z,18.66
2023-05-15T07:31:24.097Z,18.67
2023-05-15T07:33:55.970Z,18.66
2023-05-15T07:36:34.967Z,18.62
2023-05-15T07:39:16.478Z,18.56
2023-05-15T07:41:55.461Z,18.56
2023-05-15T07:44:54.213Z,18.62
2023-05-15T07:48:00.064Z,18.74
2023-05-15T07:50:53.347Z,18.79
2023-05-15T07:58:19.086Z,19.01
2023-05-15T08:00:12.848Z,19.06
2023-05-15T08:02:47.563Z,19.10
2023-05-15T08:05:16.749Z,19.18
2023-05-15T08:07:51.130Z,19.31
2023-05-15T08:10:19.716Z,19.39
2023-05-15T08:12:48.782Z,19.38
2023-05-15T08:15:19.844Z,19.40
2023-05-15T08:17:48.523Z,19.47
2023-05-15T08:20:17.158Z,19.54
2023-05-15T08:22:48.209Z,19.55
2023-05-15T08:25:16.819Z,19.57
2023-05-15T08:27:58.913Z,19.57
2023-05-15T08:30:34.555Z,19.56
2023-05-15T08:33:08.315Z,19.59
2023-05-15T08:35:36.688Z,19.63
2023-05-15T08:38:05.307Z,19.63
2023-05-15T08:40:39.936Z,19.55
2023-05-15T08:43:17.848Z,19.46
2023-05-15T08:45:46.567Z,19.40
2023-05-15T08:48:24.946Z,19.35
2023-05-15T08:51:01.389Z,19.36
2023-05-15T08:53:30.127Z,19.38
2023-05-15T08:55:59.150Z,19.40
2023-05-15T08:58:30.687Z,19.37
2023-05-15T09:01:00.131Z,19.34
2023-05-15T09:03:28.782Z,19.37
2023-05-15T09:05:59.458Z,19.46
2023-05-15T09:08:32.201Z,19.52
2023-05-15T09:11:08.235Z,19.55
2023-05-15T09:13:50.996Z,19.55
2023-05-15T09:16:33.307Z,19.57
2023-05-15T09:19:21.676Z,19.60
2023-05-15T09:21:50.267Z,19.63
2023-05-15T09:24:28.376Z,19.67
2023-05-15T09:27:09.186Z,19.72
2023-05-15T09:29:40.051Z,19.77
2023-05-15T09:32:15.922Z,19.82
2023-05-15T09:34:44.939Z,19.85
2023-05-15T09:37:30.254Z,19.81
2023-05-15T09:40:19.111Z,19.82
2023-05-15T09:42:52.666Z,19.79
2023-05-15T09:45:21.096Z,19.80
2023-05-15T09:47:49.609Z,19.83
2023-05-15T09:50:25.784Z,19.88
2023-05-15T09:52:54.195Z,19.92
2023-05-15T09:55:23.242Z,19.96
2023-05-15T09:58:09.065Z,20.02
2023-05-15T10:00:47.927Z,20.07
2023-05-15T10:03:22.579Z,20.10
2023-05-15T10:06:01.163Z,20.11
2023-05-15T10:08:29.624Z,20.18
2023-05-15T10:11:03.674Z,20.27
2023-05-15T10:13:34.727Z,20.39
2023-05-15T10:16:03.916Z,20.45
2023-05-15T10:18:35.893Z,20.49
2023-05-15T10:21:09.225Z,20.54
2023-05-15T10:23:41.219Z,20.55
2023-05-15T10:26:36.323Z,20.56
2023-05-15T10:29:10.720Z,20.56
2023-05-15T10:31:42.827Z,20.56
2023-05-15T10:34:12.008Z,20.56
2023-05-15T10:36:41.305Z,20.60
2023-05-15T10:39:13.314Z,20.65
2023-05-15T10:41:44.143Z,20.73
2023-05-15T10:44:14.967Z,20.86
2023-05-15T10:46:51.232Z,21.02
2023-05-15T10:49:30.068Z,21.31
2023-05-15T10:52:07.948Z,21.60
2023-05-15T10:54:40.477Z,21.90
2023-05-15T10:57:15.213Z,22.18
2023-05-15T10:59:44.676Z,22.42
2023-05-15T11:02:39.716Z,22.65
2023-05-15T11:05:08.732Z,22.92
2023-05-15T11:07:37.415Z,23.13
2023-05-15T11:10:29.193Z,23.21
2023-05-15T11:13:02.030Z,23.20
2023-05-15T11:15:45.846Z,23.16
2023-05-15T11:18:14.974Z,23.11
2023-05-15T11:21:03.107Z,23.12
2023-05-15T11:23:41.714Z,23.09
2023-05-15T11:26:09.939Z,23.05
2023-05-15T11:28:43.929Z,23.03
2023-05-15T11:31:12.191Z,23.01
2023-05-15T11:33:41.207Z,22.97
2023-05-15T11:36:11.662Z,22.83
2023-05-15T11:38:40.188Z,22.68
2023-05-15T11:41:23.997Z,22.52
2023-05-15T11:43:52.677Z,22.39
2023-05-15T11:46:22.198Z,22.29
2023-05-15T11:48:51.022Z,22.11
2023-05-15T11:51:26.806Z,21.95
2023-05-15T11:53:55.993Z,21.73
2023-05-15T11:56:28.493Z,21.50
2023-05-15T11:58:58.739Z,21.35
2023-05-15T12:01:27.112Z,21.19
2023-05-15T12:03:55.572Z,20.99
2023-05-15T12:06:24.437Z,20.88
2023-05-15T12:08:53.563Z,20.77
2023-05-15T12:11:23.715Z,20.70
2023-05-15T12:13:56.484Z,20.63
2023-05-15T12:16:28.894Z,20.55
2023-05-15T12:18:58.092Z,20.44
2023-05-15T12:21:35.844Z,20.31
2023-05-15T12:24:08.187Z,20.23
2023-05-15T12:26:37.988Z,20.17
2023-05-15T12:29:08.330Z,20.04
2023-05-15T12:31:37.344Z,19.96
2023-05-15T12:34:23.426Z,19.89
2023-05-15T12:37:01.970Z,19.82
2023-05-15T12:39:30.883Z,19.74
2023-05-15T12:42:05.235Z,19.73
2023-05-15T12:44:33.755Z,19.74
2023-05-15T12:47:02.488Z,19.78
2023-05-15T12:49:32.605Z,19.82
2023-05-15T12:52:11.120Z,19.87
2023-05-15T12:58:36.155Z,19.95
2023-05-15T13:01:14.552Z,20.04
2023-05-15T13:03:46.141Z,20.15
2023-05-15T13:06:16.458Z,20.24
2023-05-15T13:16:43.598Z,20.53
2023-05-15T13:24:24.439Z,20.77
2023-05-15T13:30:52.236Z,20.90
2023-05-15T13:34:54.135Z,20.92
2023-05-15T13:37:49.279Z,21.00
2023-05-15T13:40:32.119Z,21.09
2023-05-15T13:43:26.562Z,21.15
2023-05-15T13:46:38.059Z,21.21
2023-05-15T13:49:23.366Z,21.22
2023-05-15T13:52:10.153Z,21.28
2023-05-15T13:56:11.740Z,21.33
2023-05-15T13:58:38.144Z,21.33
2023-05-15T14:01:09.893Z,21.31
2023-05-15T14:04:06.017Z,21.28
2023-05-15T14:08:04.457Z,21.29
2023-05-15T14:13:23.654Z,21.36
2023-05-15T14:15:55.130Z,21.43
2023-05-15T14:18:23.622Z,21.52
2023-05-15T14:20:52.616Z,21.63
2023-05-15T14:23:30.285Z,21.76
2023-05-15T14:26:06.871Z,21.90
2023-05-15T14:28:46.931Z,22.05
2023-05-15T14:31:17.908Z,22.19
2023-05-15T14:33:46.797Z,22.29
2023-05-15T14:36:15.966Z,22.36
2023-05-15T14:38:45.757Z,22.45
2023-05-15T14:41:18.976Z,22.54
2023-05-15T14:43:47.720Z,22.62
2023-05-15T14:46:16.509Z,22.67
2023-05-15T14:48:45.300Z,22.70
2023-05-15T14:51:13.679Z,22.71
2023-05-15T14:53:42.949Z,22.70
2023-05-15T14:56:11.477Z,22.69
2023-05-15T14:58:39.739Z,22.71
2023-05-15T15:01:08.152Z,22.71
2023-05-15T15:03:36.482Z,22.69
2023-05-15T15:06:04.967Z,22.66
2023-05-15T15:08:33.040Z,22.62
2023-05-15T15:11:02.245Z,22.55
2023-05-15T15:13:31.143Z,22.49
2023-05-15T15:15:59.266Z,22.43
2023-05-15T15:18:27.625Z,22.38
2023-05-15T15:20:55.920Z,22.34
2023-05-15T15:23:24.091Z,22.32
2023-05-15T15:25:52.389Z,22.28
2023-05-15T15:28:20.504Z,22.22
2023-05-15T15:30:48.897Z,22.16
2023-05-15T15:33:16.933Z,22.06
2023-05-15T15:35:45.054Z,21.97
2023-05-15T15:38:13.502Z,21.87
2023-05-15T15:40:41.642Z,21.79
2023-05-15T15:43:10.104Z,21.76
2023-05-15T15:45:38.787Z,21.73
2023-05-15T15:48:06.987Z,21.68
2023-05-15T15:50:35.506Z,21.64
2023-05-15T15:53:03.548Z,21.60
2023-05-15T15:55:31.707Z,21.57
2023-05-15T15:57:59.851Z,21.55
2023-05-15T16:00:28.570Z,21.54
2023-05-15T16:02:57.164Z,21.51
2023-05-15T16:05:25.391Z,21.49
2023-05-15T16:07:53.516Z,21.47
2023-05-15T16:10:21.631Z,21.44
2023-05-15T16:12:51.321Z,21.42
2023-05-15T16:15:23.267Z,21.41
2023-05-15T16:17:53.661Z,21.40
2023-05-15T16:20:23.896Z,21.37
2023-05-15T16:22:52.291Z,21.34
2023-05-15T16:25:20.481Z,21.33
2023-05-15T16:27:48.726Z,21.34
2023-05-15T16:30:17.060Z,21.33
2023-05-15T16:32:45.730Z,21.34
2023-05-15T16:35:14.055Z,21.33
2023-05-15T16:37:42.244Z,21.31
2023-05-15T16:40:10.743Z,21.29
2023-05-15T16:42:38.937Z,21.28
2023-05-15T16:45:08.005Z,21.27
2023-05-15T16:47:39.522Z,21.25
2023-05-15T16:50:08.639Z,21.22
2023-05-15T16:52:38.856Z,21.19
2023-05-15T16:55:07.436Z,21.15
2023-05-15T16:57:35.718Z,21.09
2023-05-15T17:00:08.582Z,21.02
2023-05-15T17:02:37.260Z,20.96
2023-05-15T17:05:09.039Z,20.91
2023-05-15T17:07:38.608Z,20.87
2023-05-15T17:10:08.617Z,20.81
2023-05-15T17:12:36.966Z,20.74
2023-05-15T17:15:05.660Z,20.66
2023-05-15T17:17:33.934Z,20.60
2023-05-15T17:20:03.246Z,20.55
2023-05-15T17:22:32.149Z,20.47
2023-05-15T17:25:00.317Z,20.41
2023-05-15T17:27:28.566Z,20.33
2023-05-15T17:29:56.820Z,20.27
2023-05-15T17:32:25.171Z,20.22
2023-05-15T17:35:30.676Z,20.16
2023-05-15T17:42:43.189Z,19.98
2023-05-15T17:45:12.530Z,19.93
2023-05-15T17:47:40.703Z,19.88
2023-05-15T17:50:09.725Z,19.81
2023-05-15T17:52:38.197Z,19.74
2023-05-15T17:55:07.108Z,19.67
2023-05-15T17:57:35.232Z,19.60
2023-05-15T18:00:05.845Z,19.54
2023-05-15T18:02:40.456Z,19.48
2023-05-15T18:05:09.156Z,19.41
2023-05-15T18:07:37.296Z,19.35
2023-05-15T18:10:06.650Z,19.28
2023-05-15T18:12:35.550Z,19.23
2023-05-15T18:15:03.881Z,19.18
2023-05-15T18:17:32.038Z,19.13
2023-05-15T18:20:00.165Z,19.08
2023-05-15T18:22:28.514Z,19.03
2023-05-15T18:24:56.461Z,19.00
2023-05-15T18:27:25.369Z,18.97
2023-05-15T18:29:53.470Z,18.93
2023-05-15T18:32:21.476Z,18.88
2023-05-15T18:34:49.730Z,18.84
2023-05-15T18:37:17.837Z,18.80
2023-05-15T18:39:48.152Z,18.74
2023-05-15T18:42:16.701Z,18.65
2023-05-15T18:44:45.110Z,18.56
2023-05-15T18:47:13.372Z,18.46
2023-05-15T18:49:41.424Z,18.35
2023-05-15T18:52:09.794Z,18.23
2023-05-15T18:54:41.365Z,18.14
2023-05-15T18:57:09.473Z,18.07
2023-05-15T18:59:37.695Z,17.96
2023-05-15T19:02:06.226Z,17.85
2023-05-15T19:04:34.467Z,17.75
2023-05-15T19:07:02.572Z,17.65
2023-05-15T19:09:30.718Z,17.57
2023-05-15T19:12:03.025Z,17.49
2023-05-15T19:14:32.193Z,17.40
2023-05-15T19:17:01.879Z,17.32
2023-05-15T19:19:30.502Z,17.21
2023-05-15T19:21:58.541Z,17.12
2023-05-15T19:24:26.919Z,17.04
2023-05-15T19:26:55.315Z,16.95
2023-05-15T19:29:23.373Z,16.85
2023-05-15T19:31:52.049Z,16.75
2023-05-15T19:34:20.216Z,16.67
2023-05-15T19:36:50.760Z,16.58
2023-05-15T19:39:18.816Z,16.50
2023-05-15T19:41:47.185Z,16.43
2023-05-15T19:44:15.254Z,16.36
2023-05-15T19:46:45.184Z,16.32
2023-05-15T19:49:13.544Z,16.26
2023-05-15T19:51:41.665Z,16.22
2023-05-15T19:54:11.269Z,16.18
2023-05-15T19:56:39.431Z,16.15
2023-05-15T19:59:07.565Z,16.12
2023-05-15T20:01:35.661Z,16.10
2023-05-15T20:04:03.883Z,16.08
2023-05-15T20:06:32.186Z,16.07
2023-05-15T20:09:00.293Z,16.06
2023-05-15T20:11:28.326Z,16.04
2023-05-15T20:13:56.501Z,16.02
2023-05-15T20:16:24.578Z,15.99
2023-05-15T20:18:55.320Z,15.96
2023-05-15T20:21:23.557Z,15.94
2023-05-15T20:23:51.722Z,15.91
2023-05-15T20:26:21.785Z,15.89
2023-05-15T20:28:49.802Z,15.85
2023-05-15T20:31:17.885Z,15.82
2023-05-15T20:33:46.244Z,15.79
2023-05-15T20:36:16.771Z,15.77
2023-05-15T20:38:45.130Z,15.73
2023-05-15T20:41:13.276Z,15.70
2023-05-15T20:43:41.368Z,15.67
2023-05-15T20:46:10.069Z,15.64
2023-05-15T20:48:38.084Z,15.59
2023-05-15T20:51:06.141Z,15.55
2023-05-15T20:53:34.386Z,15.48
2023-05-15T20:56:03.277Z,15.44
2023-05-15T20:58:31.506Z,15.39
2023-05-15T21:01:01.378Z,15.35
2023-05-15T21:03:30.005Z,15.30
2023-05-15T21:05:58.541Z,15.26
2023-05-15T21:08:27.938Z,15.21
2023-05-15T21:10:56.433Z,15.18
2023-05-15T21:13:24.476Z,15.14
2023-05-15T21:15:52.631Z,15.10
2023-05-15T21:18:20.854Z,15.06
2023-05-15T21:20:48.898Z,15.02
2023-05-15T21:23:16.973Z,14.98
2023-05-15T21:25:45.014Z,14.92
2023-05-15T21:28:13.252Z,14.88
2023-05-15T21:30:41.259Z,14.84
2023-05-15T21:33:09.360Z,14.79
2023-05-15T21:35:38.213Z,14.75
2023-05-15T21:38:06.751Z,14.72
2023-05-15T21:40:34.762Z,14.68
2023-05-15T21:43:02.809Z,14.64
2023-05-15T21:45:31.361Z,14.60
2023-05-15T21:47:59.535Z,14.58
2023-05-15T21:50:28.212Z,14.55
2023-05-15T21:52:57.275Z,14.53
2023-05-15T21:55:25.426Z,14.50
2023-05-15T21:57:53.482Z,14.47
2023-05-15T22:00:22.078Z,14.45
2023-05-15T22:02:50.363Z,14.44
2023-05-15T22:05:18.779Z,14.43
2023-05-15T22:07:46.826Z,14.42
2023-05-15T22:10:16.666Z,14.42
2023-05-15T22:12:44.865Z,14.42
2023-05-15T22:15:15.017Z,14.42
2023-05-15T22:17:43.354Z,14.41
2023-05-15T22:20:13.333Z,14.40
2023-05-15T22:22:42.979Z,14.38
2023-05-15T22:25:11.132Z,14.36
2023-05-15T22:27:39.192Z,14.33
2023-05-15T22:30:08.743Z,14.31
2023-05-15T22:32:36.945Z,14.28
2023-05-15T22:35:05.538Z,14.24
2023-05-15T22:37:33.751Z,14.22
2023-05-15T22:40:01.861Z,14.18
2023-05-15T22:42:30.025Z,14.16
2023-05-15T22:44:58.852Z,14.13
2023-05-15T22:47:29.784Z,14.10
2023-05-15T22:49:58.031Z,14.07
2023-05-15T22:52:26.583Z,14.03
2023-05-15T22:55:13.455Z,14.00
2023-05-15T22:57:44.925Z,13.97
2023-05-15T23:00:13.765Z,13.95
2023-05-15T23:02:44.270Z,13.92
2023-05-15T23:05:13.242Z,13.90
2023-05-15T23:07:51.165Z,13.87
2023-05-15T23:10:19.411Z,13.85
2023-05-15T23:12:47.657Z,13.82
2023-05-15T23:15:16.499Z,13.80
2023-05-15T23:17:44.638Z,13.78
2023-05-15T23:20:13.637Z,13.75
2023-05-15T23:22:41.744Z,13.72
2023-05-15T23:25:10.117Z,13.70
2023-05-15T23:27:38.175Z,13.66
2023-05-15T23:30:07.387Z,13.64
2023-05-15T23:32:35.737Z,13.61
2023-05-15T23:35:03.941Z,13.59
2023-05-15T23:37:31.979Z,13.56
2023-05-15T23:40:00.173Z,13.53
2023-05-15T23:42:29.984Z,13.49
2023-05-15T23:44:58.153Z,13.43
2023-05-15T23:47:26.687Z,13.38
2023-05-15T23:49:54.955Z,13.32
2023-05-15T23:52:23.183Z,13.27
2023-05-15T23:54:51.248Z,13.23
2023-05-15T23:57:19.616Z,13.19
2023-05-15T23:59:47.716Z,13.16
